sensor_id;sensor_type;location;lat;lon;timestamp;pressure;altitude;pressure_sealevel;temperature;humidity
29197;BME280;62796;42.654;23.316;2023-02-28T00:01:30;95033.94;;;10.49;60.48
29197;BME280;62796;42.654;23.316;2023-02-28T00:03:56;95042.13;;;10.44;60.74
29197;BME280;62796;42.654;23.316;2023-02-28T00:06:22;95029.69;;;10.39;60.66
29197;BME280;62796;42.654;23.316;2023-02-28T00:08:48;95029.22;;;10.41;60.86
29197;BME280;62796;42.654;23.316;2023-02-28T00:11:14;95027.41;;;10.38;60.75
29197;BME280;62796;42.654;23.316;2023-02-28T00:13:42;95036.41;;;10.47;60.52
29197;BME280;62796;42.654;23.316;2023-02-28T00:16:11;95032.38;;;10.48;60.46
29197;BME280;62796;42.654;23.316;2023-02-28T00:18:38;95043.47;;;10.48;60.36
29197;BME280;62796;42.654;23.316;2023-02-28T00:21:04;95047.19;;;10.45;60.24
29197;BME280;62796;42.654;23.316;2023-02-28T00:23:30;95040.34;;;10.32;60.78
29197;BME280;62796;42.654;23.316;2023-02-28T00:25:55;95049.53;;;10.38;60.46
29197;BME280;62796;42.654;23.316;2023-02-28T00:28:21;95043.28;;;10.28;60.48
29197;BME280;62796;42.654;23.316;2023-02-28T00:30:47;95049.88;;;10.31;60.98
29197;BME280;62796;42.654;23.316;2023-02-28T00:33:13;95037.13;;;10.33;60.41
29197;BME280;62796;42.654;23.316;2023-02-28T00:35:38;95046.19;;;10.34;60.74
29197;BME280;62796;42.654;23.316;2023-02-28T00:38:04;95048.31;;;10.39;60.59
29197;BME280;62796;42.654;23.316;2023-02-28T00:40:29;95044.59;;;10.42;60.57
29197;BME280;62796;42.654;23.316;2023-02-28T00:42:55;95041.25;;;10.38;59.99
29197;BME280;62796;42.654;23.316;2023-02-28T00:45:21;95042.22;;;10.49;60.20
29197;BME280;62796;42.654;23.316;2023-02-28T00:47:46;95041.56;;;10.54;60.22
29197;BME280;62796;42.654;23.316;2023-02-28T00:50:16;95034.53;;;10.53;60.41
29197;BME280;62796;42.654;23.316;2023-02-28T00:52:41;95047.41;;;10.57;60.66
29197;BME280;62796;42.654;23.316;2023-02-28T00:55:07;95043.13;;;10.55;60.03
29197;BME280;62796;42.654;23.316;2023-02-28T00:57:32;95026.22;;;10.53;60.41
29197;BME280;62796;42.654;23.316;2023-02-28T00:59:58;95047.88;;;10.55;60.42
29197;BME280;62796;42.654;23.316;2023-02-28T01:02:23;95033.75;;;10.53;60.34
29197;BME280;62796;42.654;23.316;2023-02-28T01:04:49;95040.06;;;10.53;60.58
29197;BME280;62796;42.654;23.316;2023-02-28T01:07:14;95044.06;;;10.52;60.57
29197;BME280;62796;42.654;23.316;2023-02-28T01:09:40;95043.47;;;10.48;60.61
29197;BME280;62796;42.654;23.316;2023-02-28T01:12:07;95039.81;;;10.42;60.52
29197;BME280;62796;42.654;23.316;2023-02-28T01:14:32;95036.00;;;10.40;60.71
29197;BME280;62796;42.654;23.316;2023-02-28T01:16:58;95036.53;;;10.29;60.93
29197;BME280;62796;42.654;23.316;2023-02-28T01:19:23;95034.66;;;10.35;60.81
29197;BME280;62796;42.654;23.316;2023-02-28T01:21:49;95030.06;;;10.32;60.55
29197;BME280;62796;42.654;23.316;2023-02-28T01:24:14;95037.13;;;10.33;60.81
29197;BME280;62796;42.654;23.316;2023-02-28T01:26:39;95020.59;;;10.24;60.61
29197;BME280;62796;42.654;23.316;2023-02-28T01:29:05;95027.00;;;10.30;60.82
29197;BME280;62796;42.654;23.316;2023-02-28T01:31:30;95027.75;;;10.31;60.52
29197;BME280;62796;42.654;23.316;2023-02-28T01:33:56;95039.31;;;10.29;60.85
29197;BME280;62796;42.654;23.316;2023-02-28T01:36:24;95041.31;;;10.29;60.69
29197;BME280;62796;42.654;23.316;2023-02-28T01:38:51;95034.72;;;10.26;60.84
29197;BME280;62796;42.654;23.316;2023-02-28T01:41:26;95036.06;;;10.31;60.78
29197;BME280;62796;42.654;23.316;2023-02-28T01:46:56;95040.91;;;10.21;60.78
29197;BME280;62796;42.654;23.316;2023-02-28T01:49:21;95043.34;;;10.19;60.95
29197;BME280;62796;42.654;23.316;2023-02-28T01:51:50;95045.06;;;10.17;61.15
29197;BME280;62796;42.654;23.316;2023-02-28T01:54:22;95043.66;;;10.21;60.93
29197;BME280;62796;42.654;23.316;2023-02-28T01:57:04;95041.47;;;10.25;60.68
29197;BME280;62796;42.654;23.316;2023-02-28T01:59:51;95047.66;;;10.20;61.26
29197;BME280;62796;42.654;23.316;2023-02-28T02:02:20;95045.19;;;10.22;60.72
29197;BME280;62796;42.654;23.316;2023-02-28T02:04:54;95043.78;;;10.27;60.83
29197;BME280;62796;42.654;23.316;2023-02-28T02:07:21;95043.00;;;10.26;60.58
29197;BME280;62796;42.654;23.316;2023-02-28T02:09:46;95043.97;;;10.23;60.80
29197;BME280;62796;42.654;23.316;2023-02-28T02:12:37;95039.00;;;10.27;60.89
29197;BME280;62796;42.654;23.316;2023-02-28T02:17:42;95034.88;;;10.23;60.28
29197;BME280;62796;42.654;23.316;2023-02-28T02:23:05;95029.53;;;10.10;60.68
29197;BME280;62796;42.654;23.316;2023-02-28T02:28:34;95035.38;;;9.88;61.61
29197;BME280;62796;42.654;23.316;2023-02-28T02:34:41;95039.53;;;9.84;61.51
29197;BME280;62796;42.654;23.316;2023-02-28T02:36:52;95035.53;;;9.85;61.81
29197;BME280;62796;42.654;23.316;2023-02-28T02:41:52;95041.63;;;9.89;62.07
29197;BME280;62796;42.654;23.316;2023-02-28T02:47:13;95051.84;;;9.74;62.34
29197;BME280;62796;42.654;23.316;2023-02-28T02:49:45;95046.31;;;9.74;62.14
29197;BME280;62796;42.654;23.316;2023-02-28T02:52:14;95031.34;;;9.57;62.88
29197;BME280;62796;42.654;23.316;2023-02-28T02:54:45;95034.09;;;9.57;62.94
29197;BME280;62796;42.654;23.316;2023-02-28T02:59:58;95048.78;;;9.72;62.71
29197;BME280;62796;42.654;23.316;2023-02-28T03:02:27;95051.72;;;9.68;62.95
29197;BME280;62796;42.654;23.316;2023-02-28T03:05:01;95054.31;;;9.72;62.43
29197;BME280;62796;42.654;23.316;2023-02-28T03:07:28;95063.84;;;9.71;62.74
29197;BME280;62796;42.654;23.316;2023-02-28T03:09:55;95066.78;;;9.76;62.64
29197;BME280;62796;42.654;23.316;2023-02-28T03:12:23;95068.91;;;9.81;62.78
29197;BME280;62796;42.654;23.316;2023-02-28T03:14:56;95078.59;;;9.77;62.71
29197;BME280;62796;42.654;23.316;2023-02-28T03:17:49;95088.72;;;9.80;62.84
29197;BME280;62796;42.654;23.316;2023-02-28T03:25:59;95090.53;;;9.83;62.39
29197;BME280;62796;42.654;23.316;2023-02-28T03:28:53;95085.63;;;9.87;62.09
29197;BME280;62796;42.654;23.316;2023-02-28T03:31:29;95088.38;;;9.87;62.44
29197;BME280;62796;42.654;23.316;2023-02-28T03:34:09;95091.44;;;9.89;61.84
29197;BME280;62796;42.654;23.316;2023-02-28T03:36:41;95088.69;;;9.89;62.21
29197;BME280;62796;42.654;23.316;2023-02-28T03:39:17;95093.91;;;9.87;62.06
29197;BME280;62796;42.654;23.316;2023-02-28T03:41:49;95092.38;;;9.86;62.44
29197;BME280;62796;42.654;23.316;2023-02-28T03:44:22;95096.03;;;9.92;62.18
29197;BME280;62796;42.654;23.316;2023-02-28T03:47:10;95093.59;;;9.94;62.33
29197;BME280;62796;42.654;23.316;2023-02-28T03:50:01;95103.13;;;9.93;62.09
29197;BME280;62796;42.654;23.316;2023-02-28T03:52:34;95095.31;;;9.91;61.94
29197;BME280;62796;42.654;23.316;2023-02-28T03:55:03;95100.34;;;9.93;61.88
29197;BME280;62796;42.654;23.316;2023-02-28T03:57:38;95103.72;;;9.97;62.19
29197;BME280;62796;42.654;23.316;2023-02-28T04:00:42;95099.72;;;9.98;61.60
29197;BME280;62796;42.654;23.316;2023-02-28T04:02:59;95108.03;;;9.89;61.88
29197;BME280;62796;42.654;23.316;2023-02-28T04:05:25;95100.69;;;9.86;61.99
29197;BME280;62796;42.654;23.316;2023-02-28T04:07:51;95101.63;;;9.83;62.27
29197;BME280;62796;42.654;23.316;2023-02-28T04:10:18;95102.25;;;9.78;62.35
29197;BME280;62796;42.654;23.316;2023-02-28T04:12:43;95102.59;;;9.62;62.62
29197;BME280;62796;42.654;23.316;2023-02-28T04:15:09;95105.97;;;9.66;62.76
29197;BME280;62796;42.654;23.316;2023-02-28T04:17:35;95085.72;;;9.60;62.80
29197;BME280;62796;42.654;23.316;2023-02-28T04:20:01;95101.06;;;9.70;62.64
29197;BME280;62796;42.654;23.316;2023-02-28T04:22:26;95090.59;;;9.65;62.27
29197;BME280;62796;42.654;23.316;2023-02-28T04:24:52;95099.22;;;9.67;62.88
29197;BME280;62796;42.654;23.316;2023-02-28T04:27:20;95095.81;;;9.72;62.55
29197;BME280;62796;42.654;23.316;2023-02-28T04:29:45;95100.59;;;9.71;62.13
29197;BME280;62796;42.654;23.316;2023-02-28T04:32:11;95093.38;;;9.65;62.24
29197;BME280;62796;42.654;23.316;2023-02-28T04:34:36;95098.59;;;9.72;62.41
29197;BME280;62796;42.654;23.316;2023-02-28T04:37:02;95100.72;;;9.77;62.38
29197;BME280;62796;42.654;23.316;2023-02-28T04:39:28;95101.97;;;9.76;62.07
29197;BME280;62796;42.654;23.316;2023-02-28T04:41:54;95107.19;;;9.74;62.02
29197;BME280;62796;42.654;23.316;2023-02-28T04:44:20;95113.63;;;9.71;62.13
29197;BME280;62796;42.654;23.316;2023-02-28T04:46:48;95121.94;;;9.71;61.63
29197;BME280;62796;42.654;23.316;2023-02-28T04:49:13;95119.50;;;9.73;61.28
29197;BME280;62796;42.654;23.316;2023-02-28T04:51:39;95120.72;;;9.72;61.26
29197;BME280;62796;42.654;23.316;2023-02-28T04:54:05;95126.25;;;9.72;61.50
29197;BME280;62796;42.654;23.316;2023-02-28T04:56:30;95132.09;;;9.65;61.40
29197;BME280;62796;42.654;23.316;2023-02-28T04:58:55;95127.81;;;9.64;61.84
29197;BME280;62796;42.654;23.316;2023-02-28T05:01:29;95130.59;;;9.64;61.79
29197;BME280;62796;42.654;23.316;2023-02-28T05:03:56;95136.13;;;9.64;61.61
29197;BME280;62796;42.654;23.316;2023-02-28T05:06:24;95129.66;;;9.67;61.46
29197;BME280;62796;42.654;23.316;2023-02-28T05:08:50;95128.09;;;9.66;61.40
29197;BME280;62796;42.654;23.316;2023-02-28T05:11:20;95137.03;;;9.70;61.39
29197;BME280;62796;42.654;23.316;2023-02-28T05:13:45;95139.16;;;9.66;61.09
29197;BME280;62796;42.654;23.316;2023-02-28T05:16:11;95128.75;;;9.61;61.55
29197;BME280;62796;42.654;23.316;2023-02-28T05:18:37;95136.44;;;9.57;61.30
29197;BME280;62796;42.654;23.316;2023-02-28T05:21:02;95137.84;;;9.52;61.57
29197;BME280;62796;42.654;23.316;2023-02-28T05:23:28;95140.13;;;9.44;62.15
29197;BME280;62796;42.654;23.316;2023-02-28T05:25:54;95146.44;;;9.45;62.39
29197;BME280;62796;42.654;23.316;2023-02-28T05:28:20;95142.13;;;9.44;61.90
29197;BME280;62796;42.654;23.316;2023-02-28T05:30:46;95152.44;;;9.53;62.04
29197;BME280;62796;42.654;23.316;2023-02-28T05:33:11;95150.13;;;9.42;61.70
29197;BME280;62796;42.654;23.316;2023-02-28T05:35:39;95160.09;;;9.49;62.03
29197;BME280;62796;42.654;23.316;2023-02-28T05:38:04;95155.03;;;9.47;62.33
29197;BME280;62796;42.654;23.316;2023-02-28T05:40:30;95162.56;;;9.47;61.80
29197;BME280;62796;42.654;23.316;2023-02-28T05:42:55;95158.88;;;9.50;61.94
29197;BME280;62796;42.654;23.316;2023-02-28T05:45:20;95149.19;;;9.54;61.84
29197;BME280;62796;42.654;23.316;2023-02-28T05:47:46;95166.22;;;9.62;61.64
29197;BME280;62796;42.654;23.316;2023-02-28T05:50:11;95169.31;;;9.64;61.57
29197;BME280;62796;42.654;23.316;2023-02-28T05:52:37;95175.41;;;9.68;61.22
29197;BME280;62796;42.654;23.316;2023-02-28T05:55:03;95170.22;;;9.70;60.99
29197;BME280;62796;42.654;23.316;2023-02-28T05:57:29;95170.50;;;9.72;61.52
29197;BME280;62796;42.654;23.316;2023-02-28T05:59:55;95174.50;;;9.71;61.48
29197;BME280;62796;42.654;23.316;2023-02-28T06:02:21;95173.28;;;9.72;61.64
29197;BME280;62796;42.654;23.316;2023-02-28T06:04:46;95175.56;;;9.82;61.53
29197;BME280;62796;42.654;23.316;2023-02-28T06:07:12;95172.63;;;9.77;61.40
29197;BME280;62796;42.654;23.316;2023-02-28T06:09:37;95174.50;;;9.71;61.92
29197;BME280;62796;42.654;23.316;2023-02-28T06:12:04;95165.59;;;9.76;61.82
29197;BME280;62796;42.654;23.316;2023-02-28T06:14:33;95173.25;;;9.81;62.07
29197;BME280;62796;42.654;23.316;2023-02-28T06:16:59;95165.09;;;9.86;62.16
29197;BME280;62796;42.654;23.316;2023-02-28T06:19:25;95160.00;;;9.94;61.63
29197;BME280;62796;42.654;23.316;2023-02-28T06:21:52;95170.72;;;10.01;61.48
29197;BME280;62796;42.654;23.316;2023-02-28T06:24:21;95161.97;;;10.02;60.67
29197;BME280;62796;42.654;23.316;2023-02-28T06:26:47;95171.34;;;10.05;60.94
29197;BME280;62796;42.654;23.316;2023-02-28T06:29:14;95169.47;;;10.11;61.06
29197;BME280;62796;42.654;23.316;2023-02-28T06:31:42;95177.16;;;10.16;60.52
29197;BME280;62796;42.654;23.316;2023-02-28T06:34:09;95179.00;;;10.19;60.30
29197;BME280;62796;42.654;23.316;2023-02-28T06:36:37;95183.19;;;10.15;60.86
29197;BME280;62796;42.654;23.316;2023-02-28T06:39:02;95177.16;;;10.16;60.88
29197;BME280;62796;42.654;23.316;2023-02-28T06:41:28;95190.38;;;10.21;60.71
29197;BME280;62796;42.654;23.316;2023-02-28T06:43:53;95185.13;;;10.23;60.50
29197;BME280;62796;42.654;23.316;2023-02-28T06:46:19;95179.91;;;10.25;60.47
29197;BME280;62796;42.654;23.316;2023-02-28T06:48:45;95187.88;;;10.32;60.43
29197;BME280;62796;42.654;23.316;2023-02-28T06:51:14;95181.44;;;10.26;60.51
29197;BME280;62796;42.654;23.316;2023-02-28T06:53:40;95189.84;;;10.41;59.98
29197;BME280;62796;42.654;23.316;2023-02-28T06:56:11;95200.25;;;10.46;59.67
29197;BME280;62796;42.654;23.316;2023-02-28T06:58:37;95190.72;;;10.47;59.54
29197;BME280;62796;42.654;23.316;2023-02-28T07:01:03;95196.56;;;10.49;59.75
29197;BME280;62796;42.654;23.316;2023-02-28T07:03:28;95181.34;;;10.44;59.51
29197;BME280;62796;42.654;23.316;2023-02-28T07:05:54;95193.78;;;10.49;59.68
29197;BME280;62796;42.654;23.316;2023-02-28T07:08:22;95187.78;;;10.50;59.36
29197;BME280;62796;42.654;23.316;2023-02-28T07:10:51;95183.66;;;10.46;59.87
29197;BME280;62796;42.654;23.316;2023-02-28T07:13:17;95197.63;;;10.51;59.79
29197;BME280;62796;42.654;23.316;2023-02-28T07:15:42;95188.06;;;10.52;59.76
29197;BME280;62796;42.654;23.316;2023-02-28T07:18:07;95191.56;;;10.62;59.65
29197;BME280;62796;42.654;23.316;2023-02-28T07:20:33;95192.91;;;10.67;59.79
29197;BME280;62796;42.654;23.316;2023-02-28T07:22:58;95189.88;;;10.65;59.57
29197;BME280;62796;42.654;23.316;2023-02-28T07:25:25;95202.50;;;10.66;59.75
29197;BME280;62796;42.654;23.316;2023-02-28T07:27:51;95192.19;;;10.66;59.98
29197;BME280;62796;42.654;23.316;2023-02-28T07:30:17;95193.69;;;10.67;59.67
29197;BME280;62796;42.654;23.316;2023-02-28T07:32:42;95195.34;;;10.74;59.54
29197;BME280;62796;42.654;23.316;2023-02-28T07:35:08;95199.00;;;10.80;59.59
29197;BME280;62796;42.654;23.316;2023-02-28T07:37:33;95195.97;;;10.78;59.87
29197;BME280;62796;42.654;23.316;2023-02-28T07:40:06;95204.84;;;10.82;59.44
29197;BME280;62796;42.654;23.316;2023-02-28T07:42:34;95202.56;;;10.80;59.42
29197;BME280;62796;42.654;23.316;2023-02-28T07:45:00;95207.00;;;10.87;59.35
29197;BME280;62796;42.654;23.316;2023-02-28T07:47:26;95206.63;;;10.94;59.10
29197;BME280;62796;42.654;23.316;2023-02-28T07:49:51;95193.41;;;10.89;59.13
29197;BME280;62796;42.654;23.316;2023-02-28T07:52:17;95193.41;;;10.89;59.10
29197;BME280;62796;42.654;23.316;2023-02-28T07:54:42;95190.34;;;10.87;59.22
29197;BME280;62796;42.654;23.316;2023-02-28T07:57:08;95194.66;;;10.88;59.73
29197;BME280;62796;42.654;23.316;2023-02-28T07:59:33;95187.38;;;10.90;59.49
29197;BME280;62796;42.654;23.316;2023-02-28T08:01:58;95194.47;;;10.91;59.24
29197;BME280;62796;42.654;23.316;2023-02-28T08:04:24;95188.16;;;10.91;59.30
29197;BME280;62796;42.654;23.316;2023-02-28T08:06:50;95194.13;;;10.98;59.47
29197;BME280;62796;42.654;23.316;2023-02-28T08:09:17;95190.34;;;10.87;59.69
29197;BME280;62796;42.654;23.316;2023-02-28T08:11:42;95189.75;;;10.83;59.35
29197;BME280;62796;42.654;23.316;2023-02-28T08:14:08;95195.41;;;10.88;59.59
29197;BME280;62796;42.654;23.316;2023-02-28T08:16:33;95192.19;;;10.90;59.81
29197;BME280;62796;42.654;23.316;2023-02-28T08:18:59;95198.06;;;10.83;59.71
29197;BME280;62796;42.654;23.316;2023-02-28T08:21:24;95199.00;;;10.80;60.05
29197;BME280;62796;42.654;23.316;2023-02-28T08:23:50;95199.97;;;10.77;60.30
29197;BME280;62796;42.654;23.316;2023-02-28T08:26:17;95207.38;;;10.71;60.54
29197;BME280;62796;42.654;23.316;2023-02-28T08:28:42;95203.16;;;10.51;61.47
29197;BME280;62796;42.654;23.316;2023-02-28T08:31:10;95196.25;;;10.47;61.79
29197;BME280;62796;42.654;23.316;2023-02-28T08:33:36;95204.25;;;10.54;61.90
29197;BME280;62796;42.654;23.316;2023-02-28T08:36:02;95195.75;;;10.57;61.74
29197;BME280;62796;42.654;23.316;2023-02-28T08:38:27;95207.97;;;10.75;61.21
29197;BME280;62796;42.654;23.316;2023-02-28T08:41:00;95213.47;;;10.84;61.30
29197;BME280;62796;42.654;23.316;2023-02-28T08:43:27;95211.59;;;10.90;60.83
29197;BME280;62796;42.654;23.316;2023-02-28T08:45:53;95196.34;;;10.62;61.44
29197;BME280;62796;42.654;23.316;2023-02-28T08:48:19;95200.00;;;10.68;61.52
29197;BME280;62796;42.654;23.316;2023-02-28T08:50:44;95199.66;;;10.75;61.32
29197;BME280;62796;42.654;23.316;2023-02-28T08:53:10;95202.66;;;10.86;61.25
29197;BME280;62796;42.654;23.316;2023-02-28T08:55:35;95210.09;;;10.80;60.95
29197;BME280;62796;42.654;23.316;2023-02-28T08:58:00;95208.59;;;10.70;61.76
29197;BME280;62796;42.654;23.316;2023-02-28T09:00:26;95208.09;;;10.80;61.17
29197;BME280;62796;42.654;23.316;2023-02-28T09:02:52;95216.53;;;10.86;60.70
29197;BME280;62796;42.654;23.316;2023-02-28T09:05:17;95221.22;;;10.71;60.97
29197;BME280;62796;42.654;23.316;2023-02-28T09:07:42;95210.47;;;10.64;61.38
29197;BME280;62796;42.654;23.316;2023-02-28T09:10:09;95202.06;;;10.58;61.10
29197;BME280;62796;42.654;23.316;2023-02-28T09:12:34;95205.91;;;10.51;61.85
29197;BME280;62796;42.654;23.316;2023-02-28T09:15:01;95202.22;;;10.54;61.93
29197;BME280;62796;42.654;23.316;2023-02-28T09:17:26;95205.31;;;10.57;61.87
29197;BME280;62796;42.654;23.316;2023-02-28T09:19:52;95206.91;;;10.72;61.95
29197;BME280;62796;42.654;23.316;2023-02-28T09:22:17;95206.09;;;10.81;61.83
29197;BME280;62796;42.654;23.316;2023-02-28T09:24:42;95208.88;;;10.81;61.44
29197;BME280;62796;42.654;23.316;2023-02-28T09:27:09;95211.00;;;10.86;61.68
29197;BME280;62796;42.654;23.316;2023-02-28T09:29:34;95194.03;;;10.93;61.53
29197;BME280;62796;42.654;23.316;2023-02-28T09:32:01;95206.50;;;11.12;61.12
29197;BME280;62796;42.654;23.316;2023-02-28T09:34:27;95199.94;;;11.24;60.72
29197;BME280;62796;42.654;23.316;2023-02-28T09:36:53;95199.06;;;11.18;60.44
29197;BME280;62796;42.654;23.316;2023-02-28T09:39:21;95194.41;;;11.24;60.87
29197;BME280;62796;42.654;23.316;2023-02-28T09:41:49;95199.69;;;11.37;60.42
29197;BME280;62796;42.654;23.316;2023-02-28T09:44:27;95183.66;;;11.41;60.15
29197;BME280;62796;42.654;23.316;2023-02-28T09:46:58;95196.28;;;11.56;60.65
29197;BME280;62796;42.654;23.316;2023-02-28T09:49:31;95190.97;;;11.68;59.60
29197;BME280;62796;42.654;23.316;2023-02-28T09:54:30;95187.81;;;11.89;59.43
29197;BME280;62796;42.654;23.316;2023-02-28T09:57:00;95183.13;;;11.95;59.26
29197;BME280;62796;42.654;23.316;2023-02-28T10:04:47;95184.09;;;12.07;59.36
29197;BME280;62796;42.654;23.316;2023-02-28T10:07:55;95186.47;;;12.14;59.21
29197;BME280;62796;42.654;23.316;2023-02-28T10:13:02;95163.00;;;12.30;58.21
29197;BME280;62796;42.654;23.316;2023-02-28T10:15:31;95166.06;;;12.32;58.22
29197;BME280;62796;42.654;23.316;2023-02-28T10:18:01;95169.50;;;12.41;58.21
29197;BME280;62796;42.654;23.316;2023-02-28T10:20:31;95169.78;;;12.43;57.93
29197;BME280;62796;42.654;23.316;2023-02-28T10:25:34;95157.81;;;12.37;58.38
29197;BME280;62796;42.654;23.316;2023-02-28T10:28:14;95156.31;;;12.36;58.94
29197;BME280;62796;42.654;23.316;2023-02-28T10:30:46;95155.34;;;12.39;58.71
29197;BME280;62796;42.654;23.316;2023-02-28T10:33:33;95150.31;;;12.43;57.63
29197;BME280;62796;42.654;23.316;2023-02-28T10:36:00;95144.66;;;12.52;57.86
29197;BME280;62796;42.654;23.316;2023-02-28T10:38:38;95138.00;;;12.64;57.10
29197;BME280;62796;42.654;23.316;2023-02-28T10:41:10;95122.59;;;12.84;57.33
29197;BME280;62796;42.654;23.316;2023-02-28T10:43:37;95122.47;;;13.13;55.83
29197;BME280;62796;42.654;23.316;2023-02-28T10:51:04;95111.06;;;13.31;54.12
29197;BME280;62796;42.654;23.316;2023-02-28T10:53:33;95102.88;;;13.22;54.84
29197;BME280;62796;42.654;23.316;2023-02-28T11:01:22;95088.03;;;13.30;54.33
29197;BME280;62796;42.654;23.316;2023-02-28T11:03:48;95090.16;;;13.41;54.34
29197;BME280;62796;42.654;23.316;2023-02-28T11:06:20;95093.59;;;13.56;54.26
29197;BME280;62796;42.654;23.316;2023-02-28T11:08:51;95082.59;;;13.67;52.74
29197;BME280;62796;42.654;23.316;2023-02-28T11:11:18;95084.81;;;13.63;53.40
29197;BME280;62796;42.654;23.316;2023-02-28T11:13:47;95093.38;;;13.60;53.79
29197;BME280;62796;42.654;23.316;2023-02-28T11:16:15;95086.88;;;13.68;53.65
29197;BME280;62796;42.654;23.316;2023-02-28T11:18:54;95083.44;;;13.79;53.50
29197;BME280;62796;42.654;23.316;2023-02-28T11:21:56;95085.50;;;13.84;52.20
29197;BME280;62796;42.654;23.316;2023-02-28T11:24:47;95076.84;;;13.76;52.38
29197;BME280;62796;42.654;23.316;2023-02-28T11:27:43;95081.66;;;13.76;53.02
29197;BME280;62796;42.654;23.316;2023-02-28T11:30:37;95076.03;;;13.70;53.13
29197;BME280;62796;42.654;23.316;2023-02-28T11:33:26;95074.41;;;13.58;53.94
29197;BME280;62796;42.654;23.316;2023-02-28T11:35:52;95076.03;;;13.70;52.67
29197;BME280;62796;42.654;23.316;2023-02-28T11:38:20;95076.28;;;13.72;52.07
29197;BME280;62796;42.654;23.316;2023-02-28T11:46:41;95067.13;;;13.66;53.32
29197;BME280;62796;42.654;23.316;2023-02-28T11:55:04;95057.00;;;13.95;52.31
29197;BME280;62796;42.654;23.316;2023-02-28T11:57:59;95057.41;;;14.19;52.08
29197;BME280;62796;42.654;23.316;2023-02-28T12:14:31;95059.00;;;14.73;48.83
29197;BME280;62796;42.654;23.316;2023-02-28T12:27:29;95054.28;;;14.43;50.35
29197;BME280;62796;42.654;23.316;2023-02-28T12:32:46;95051.25;;;14.46;49.77
29197;BME280;62796;42.654;23.316;2023-02-28T12:35:15;95054.56;;;14.45;49.94
29197;BME280;62796;42.654;23.316;2023-02-28T12:40:23;95045.38;;;14.33;50.64
29197;BME280;62796;42.654;23.316;2023-02-28T12:42:59;95056.16;;;14.20;50.88
29197;BME280;62796;42.654;23.316;2023-02-28T12:45:40;95050.75;;;14.11;50.93
29197;BME280;62796;42.654;23.316;2023-02-28T12:48:11;95045.44;;;14.13;50.92
29197;BME280;62796;42.654;23.316;2023-02-28T12:50:40;95051.28;;;14.09;51.18
29197;BME280;62796;42.654;23.316;2023-02-28T12:58:43;95049.81;;;13.82;51.23
29197;BME280;62796;42.654;23.316;2023-02-28T13:09:13;95044.16;;;14.08;51.21
29197;BME280;62796;42.654;23.316;2023-02-28T13:11:44;95047.97;;;14.11;50.91
29197;BME280;62796;42.654;23.316;2023-02-28T13:17:01;95049.56;;;13.86;51.41
29197;BME280;62796;42.654;23.316;2023-02-28T13:19:30;95037.09;;;13.76;51.18
29197;BME280;62796;42.654;23.316;2023-02-28T13:21:58;95043.69;;;13.78;51.57
29197;BME280;62796;42.654;23.316;2023-02-28T13:27:21;95041.72;;;13.84;51.39
29197;BME280;62796;42.654;23.316;2023-02-28T13:29:51;95035.41;;;13.90;50.89
29197;BME280;62796;42.654;23.316;2023-02-28T13:32:35;95030.31;;;13.82;50.75
29197;BME280;62796;42.654;23.316;2023-02-28T13:43:16;95037.94;;;13.56;50.58
29197;BME280;62796;42.654;23.316;2023-02-28T13:46:06;95034.75;;;13.69;49.97
29197;BME280;62796;42.654;23.316;2023-02-28T13:48:33;95027.72;;;13.73;49.98
29197;BME280;62796;42.654;23.316;2023-02-28T13:50:58;95022.81;;;13.63;50.14
29197;BME280;62796;42.654;23.316;2023-02-28T13:53:37;95017.28;;;13.68;50.05
29197;BME280;62796;42.654;23.316;2023-02-28T13:56:25;95014.50;;;13.68;49.88
29197;BME280;62796;42.654;23.316;2023-02-28T13:59:20;95017.75;;;13.61;50.01
29197;BME280;62796;42.654;23.316;2023-02-28T14:06:53;95007.50;;;13.47;50.53
29197;BME280;62796;42.654;23.316;2023-02-28T14:09:38;95019.34;;;13.42;51.18
29197;BME280;62796;42.654;23.316;2023-02-28T14:18:21;95020.28;;;13.08;51.98
29197;BME280;62796;42.654;23.316;2023-02-28T14:20:49;95027.78;;;13.02;52.49
29197;BME280;62796;42.654;23.316;2023-02-28T14:26:26;95018.88;;;13.18;52.33
29197;BME280;62796;42.654;23.316;2023-02-28T14:35:16;95021.25;;;13.05;52.54
29197;BME280;62796;42.654;23.316;2023-02-28T14:37:42;95027.78;;;13.02;52.43
29197;BME280;62796;42.654;23.316;2023-02-28T14:40:27;95019.59;;;12.93;52.76
29197;BME280;62796;42.654;23.316;2023-02-28T14:43:04;95019.47;;;12.82;53.72
29197;BME280;62796;42.654;23.316;2023-02-28T14:45:32;95033.34;;;12.82;53.53
29197;BME280;62796;42.654;23.316;2023-02-28T14:48:00;95028.22;;;12.74;53.92
29197;BME280;62796;42.654;23.316;2023-02-28T14:50:30;95024.19;;;12.55;54.48
29197;BME280;62796;42.654;23.316;2023-02-28T14:52:56;95032.34;;;12.59;54.47
29197;BME280;62796;42.654;23.316;2023-02-28T14:55:31;95027.75;;;12.56;54.83
29197;BME280;62796;42.654;23.316;2023-02-28T14:58:02;95026.16;;;12.49;54.60
29197;BME280;62796;42.654;23.316;2023-02-28T15:00:34;95023.66;;;12.51;54.84
29197;BME280;62796;42.654;23.316;2023-02-28T15:03:18;95025.63;;;12.45;55.07
29197;BME280;62796;42.654;23.316;2023-02-28T15:05:51;95018.91;;;12.37;55.22
29197;BME280;62796;42.654;23.316;2023-02-28T15:08:17;95022.13;;;12.30;55.58
29197;BME280;62796;42.654;23.316;2023-02-28T15:10:50;95023.38;;;12.29;55.59
29197;BME280;62796;42.654;23.316;2023-02-28T15:13:17;95030.84;;;12.23;56.43
29197;BME280;62796;42.654;23.316;2023-02-28T15:21:00;95017.28;;;12.10;56.85
29197;BME280;62796;42.654;23.316;2023-02-28T15:23:28;95021.94;;;11.99;57.28
29197;BME280;62796;42.654;23.316;2023-02-28T15:25:54;95032.47;;;11.95;57.06
29197;BME280;62796;42.654;23.316;2023-02-28T15:28:22;95032.88;;;11.88;56.96
29197;BME280;62796;42.654;23.316;2023-02-28T15:30:59;95035.09;;;11.84;57.24